sensor_id;sensor_type;location;lat;lon;timestamp;temperature;humidity
10583;DHT22;33679;51.218;6.786;2023-05-17T00:00:02;14.30;99.90
10583;DHT22;33679;51.218;6.786;2023-05-17T00:02:38;14.30;99.90
10583;DHT22;33679;51.218;6.786;2023-05-17T00:05:11;14.20;99.90
10583;DHT22;33679;51.218;6.786;2023-05-17T00:07:43;14.20;99.90
10583;DHT22;33679;51.218;6.786;2023-05-17T00:10:17;14.20;99.90
10583;DHT22;33679;51.218;6.786;2023-05-17T00:12:49;14.20;99.90
10583;DHT22;33679;51.218;6.786;2023-05-17T00:15:24;14.20;99.90
10583;DHT22;33679;51.218;6.786;2023-05-17T00:17:59;14.10;99.90
10583;DHT22;33679;51.218;6.786;2023-05-17T00:20:31;14.10;99.90
10583;DHT22;33679;51.218;6.786;2023-05-17T00:23:04;14.10;99.90
10583;DHT22;33679;51.218;6.786;2023-05-17T00:25:36;14.00;99.90
10583;DHT22;33679;51.218;6.786;2023-05-17T00:28:08;14.00;99.90
10583;DHT22;33679;51.218;6.786;2023-05-17T00:30:41;14.00;99.90
10583;DHT22;33679;51.218;6.786;2023-05-17T00:33:14;13.90;99.90
10583;DHT22;33679;51.218;6.786;2023-05-17T00:35:47;13.80;99.90
10583;DHT22;33679;51.218;6.786;2023-05-17T00:38:19;13.70;99.90
10583;DHT22;33679;51.218;6.786;2023-05-17T00:40:52;13.70;99.90
10583;DHT22;33679;51.218;6.786;2023-05-17T00:43:25;13.70;99.90
10583;DHT22;33679;51.218;6.786;2023-05-17T00:45:57;13.70;99.90
10583;DHT22;33679;51.218;6.786;2023-05-17T00:48:33;13.70;99.90
10583;DHT22;33679;51.218;6.786;2023-05-17T00:51:06;13.70;99.90
10583;DHT22;33679;51.218;6.786;2023-05-17T00:53:39;13.60;99.90
10583;DHT22;33679;51.218;6.786;2023-05-17T00:56:11;13.60;99.90
10583;DHT22;33679;51.218;6.786;2023-05-17T00:58:44;13.50;99.90
10583;DHT22;33679;51.218;6.786;2023-05-17T01:01:19;13.40;99.90
10583;DHT22;33679;51.218;6.786;2023-05-17T01:03:53;13.40;99.90
10583;DHT22;33679;51.218;6.786;2023-05-17T01:06:27;13.30;99.90
10583;DHT22;33679;51.218;6.786;2023-05-17T01:09:00;13.30;99.90
10583;DHT22;33679;51.218;6.786;2023-05-17T01:11:41;13.30;99.90
10583;DHT22;33679;51.218;6.786;2023-05-17T01:14:26;13.20;99.90
10583;DHT22;33679;51.218;6.786;2023-05-17T01:17:05;13.20;99.90
10583;DHT22;33679;51.218;6.786;2023-05-17T01:19:54;13.10;99.90
10583;DHT22;33679;51.218;6.786;2023-05-17T01:22:35;13.10;99.90
10583;DHT22;33679;51.218;6.786;2023-05-17T01:25:23;13.10;99.90
10583;DHT22;33679;51.218;6.786;2023-05-17T01:28:01;13.10;99.90
10583;DHT22;33679;51.218;6.786;2023-05-17T01:30:35;13.10;99.90
10583;DHT22;33679;51.218;6.786;2023-05-17T01:33:08;13.10;99.90
10583;DHT22;33679;51.218;6.786;2023-05-17T01:35:41;13.10;99.90
10583;DHT22;33679;51.218;6.786;2023-05-17T01:38:16;13.10;99.90
10583;DHT22;33679;51.218;6.786;2023-05-17T01:40:54;13.20;99.90
10583;DHT22;33679;51.218;6.786;2023-05-17T01:43:34;13.20;99.90
10583;DHT22;33679;51.218;6.786;2023-05-17T01:46:12;13.20;99.90
10583;DHT22;33679;51.218;6.786;2023-05-17T01:48:54;13.20;99.90
10583;DHT22;33679;51.218;6.786;2023-05-17T01:51:32;13.20;99.90
10583;DHT22;33679;51.218;6.786;2023-05-17T01:54:05;13.20;99.90
10583;DHT22;33679;51.218;6.786;2023-05-17T01:56:51;13.20;99.90
10583;DHT22;33679;51.218;6.786;2023-05-17T01:59:29;13.20;99.90
10583;DHT22;33679;51.218;6.786;2023-05-17T02:02:02;13.20;99.90
10583;DHT22;33679;51.218;6.786;2023-05-17T02:04:40;13.20;99.90
10583;DHT22;33679;51.218;6.786;2023-05-17T02:07:12;13.10;99.90
10583;DHT22;33679;51.218;6.786;2023-05-17T02:09:45;13.10;99.90
10583;DHT22;33679;51.218;6.786;2023-05-17T02:12:17;13.10;99.90
10583;DHT22;33679;51.218;6.786;2023-05-17T02:14:51;13.10;99.90
10583;DHT22;33679;51.218;6.786;2023-05-17T02:17:23;13.00;99.90
10583;DHT22;33679;51.218;6.786;2023-05-17T02:19:55;12.90;99.90
10583;DHT22;33679;51.218;6.786;2023-05-17T02:22:28;12.90;99.90
10583;DHT22;33679;51.218;6.786;2023-05-17T02:25:01;12.90;99.90
10583;DHT22;33679;51.218;6.786;2023-05-17T02:27:34;12.90;99.90
10583;DHT22;33679;51.218;6.786;2023-05-17T02:30:09;12.90;99.90
10583;DHT22;33679;51.218;6.786;2023-05-17T02:32:43;12.90;99.90
10583;DHT22;33679;51.218;6.786;2023-05-17T02:35:18;12.90;99.90
10583;DHT22;33679;51.218;6.786;2023-05-17T02:37:50;12.90;99.90
10583;DHT22;33679;51.218;6.786;2023-05-17T02:40:23;13.00;99.90
10583;DHT22;33679;51.218;6.786;2023-05-17T02:42:56;13.00;99.90
10583;DHT22;33679;51.218;6.786;2023-05-17T02:45:29;13.00;99.90
10583;DHT22;33679;51.218;6.786;2023-05-17T02:48:04;13.00;99.90
10583;DHT22;33679;51.218;6.786;2023-05-17T02:50:37;13.00;99.90
10583;DHT22;33679;51.218;6.786;2023-05-17T02:53:09;13.10;99.90
10583;DHT22;33679;51.218;6.786;2023-05-17T02:55:42;13.10;99.90
10583;DHT22;33679;51.218;6.786;2023-05-17T02:58:14;13.10;99.90
10583;DHT22;33679;51.218;6.786;2023-05-17T03:00:48;13.00;99.90
10583;DHT22;33679;51.218;6.786;2023-05-17T03:03:20;12.90;99.90
10583;DHT22;33679;51.218;6.786;2023-05-17T03:05:53;12.90;99.90
10583;DHT22;33679;51.218;6.786;2023-05-17T03:08:26;12.90;99.90
10583;DHT22;33679;51.218;6.786;2023-05-17T03:10:59;12.80;99.90
10583;DHT22;33679;51.218;6.786;2023-05-17T03:13:32;12.80;99.90
10583;DHT22;33679;51.218;6.786;2023-05-17T03:16:08;12.80;99.90
10583;DHT22;33679;51.218;6.786;2023-05-17T03:18:40;12.80;99.90
10583;DHT22;33679;51.218;6.786;2023-05-17T03:21:12;12.70;99.90
10583;DHT22;33679;51.218;6.786;2023-05-17T03:23:45;12.70;99.90
10583;DHT22;33679;51.218;6.786;2023-05-17T03:26:18;12.70;99.90
10583;DHT22;33679;51.218;6.786;2023-05-17T03:28:54;12.70;99.90
10583;DHT22;33679;51.218;6.786;2023-05-17T03:31:28;12.70;99.90
10583;DHT22;33679;51.218;6.786;2023-05-17T03:34:01;12.70;99.90
10583;DHT22;33679;51.218;6.786;2023-05-17T03:36:34;12.70;99.90
10583;DHT22;33679;51.218;6.786;2023-05-17T03:39:06;12.70;99.90
10583;DHT22;33679;51.218;6.786;2023-05-17T03:41:40;12.70;99.90
10583;DHT22;33679;51.218;6.786;2023-05-17T03:44:12;12.70;99.90
10583;DHT22;33679;51.218;6.786;2023-05-17T03:46:46;12.80;99.90
10583;DHT22;33679;51.218;6.786;2023-05-17T03:49:20;12.80;99.90
10583;DHT22;33679;51.218;6.786;2023-05-17T03:51:56;12.80;99.90
10583;DHT22;33679;51.218;6.786;2023-05-17T03:54:29;12.90;99.90
10583;DHT22;33679;51.218;6.786;2023-05-17T03:57:01;13.00;99.90
10583;DHT22;33679;51.218;6.786;2023-05-17T03:59:34;13.00;99.90
10583;DHT22;33679;51.218;6.786;2023-05-17T04:02:10;13.10;99.90
10583;DHT22;33679;51.218;6.786;2023-05-17T04:04:48;13.10;99.90
10583;DHT22;33679;51.218;6.786;2023-05-17T04:07:24;13.10;99.90
10583;DHT22;33679;51.218;6.786;2023-05-17T04:10:00;13.10;99.90
10583;DHT22;33679;51.218;6.786;2023-05-17T04:12:33;13.10;99.90
10583;DHT22;33679;51.218;6.786;2023-05-17T04:15:09;13.10;99.90
10583;DHT22;33679;51.218;6.786;2023-05-17T04:17:45;13.10;99.90
10583;DHT22;33679;51.218;6.786;2023-05-17T04:20:20;13.10;99.90
10583;DHT22;33679;51.218;6.786;2023-05-17T04:22:53;13.10;99.90
10583;DHT22;33679;51.218;6.786;2023-05-17T04:25:27;13.10;99.90
10583;DHT22;33679;51.218;6.786;2023-05-17T04:28:00;13.20;99.90
10583;DHT22;33679;51.218;6.786;2023-05-17T04:30:33;13.20;99.90
10583;DHT22;33679;51.218;6.786;2023-05-17T04:33:08;13.20;99.90
10583;DHT22;33679;51.218;6.786;2023-05-17T04:35:45;13.30;99.90
10583;DHT22;33679;51.218;6.786;2023-05-17T04:38:17;13.30;99.90
10583;DHT22;33679;51.218;6.786;2023-05-17T04:40:50;13.40;99.90
10583;DHT22;33679;51.218;6.786;2023-05-17T04:43:26;13.40;99.90
10583;DHT22;33679;51.218;6.786;2023-05-17T04:45:59;13.40;99.90
10583;DHT22;33679;51.218;6.786;2023-05-17T04:48:34;13.40;99.90
10583;DHT22;33679;51.218;6.786;2023-05-17T04:51:09;13.40;99.90
10583;DHT22;33679;51.218;6.786;2023-05-17T04:53:41;13.30;99.90
10583;DHT22;33679;51.218;6.786;2023-05-17T04:56:19;13.40;99.90
10583;DHT22;33679;51.218;6.786;2023-05-17T04:58:53;13.40;99.90
10583;DHT22;33679;51.218;6.786;2023-05-17T05:01:26;13.40;99.90
10583;DHT22;33679;51.218;6.786;2023-05-17T05:04:03;13.40;99.90
10583;DHT22;33679;51.218;6.786;2023-05-17T05:06:42;13.40;99.90
10583;DHT22;33679;51.218;6.786;2023-05-17T05:09:16;13.40;99.90
10583;DHT22;33679;51.218;6.786;2023-05-17T05:11:49;13.40;99.90
10583;DHT22;33679;51.218;6.786;2023-05-17T05:14:21;13.40;99.90
10583;DHT22;33679;51.218;6.786;2023-05-17T05:16:53;13.40;99.90
10583;DHT22;33679;51.218;6.786;2023-05-17T05:19:29;13.40;99.90
10583;DHT22;33679;51.218;6.786;2023-05-17T05:22:05;13.30;99.90
10583;DHT22;33679;51.218;6.786;2023-05-17T05:24:40;13.30;99.90
10583;DHT22;33679;51.218;6.786;2023-05-17T05:27:13;13.30;99.90
10583;DHT22;33679;51.218;6.786;2023-05-17T05:29:47;13.40;99.90
10583;DHT22;33679;51.218;6.786;2023-05-17T05:32:20;13.50;99.90
10583;DHT22;33679;51.218;6.786;2023-05-17T05:34:54;13.60;99.90
10583;DHT22;33679;51.218;6.786;2023-05-17T05:37:27;13.80;99.90
10583;DHT22;33679;51.218;6.786;2023-05-17T05:40:03;13.90;99.90
10583;DHT22;33679;51.218;6.786;2023-05-17T05:42:38;14.10;99.90
10583;DHT22;33679;51.218;6.786;2023-05-17T05:45:11;14.30;99.90
10583;DHT22;33679;51.218;6.786;2023-05-17T05:47:48;14.40;99.90
10583;DHT22;33679;51.218;6.786;2023-05-17T05:50:25;14.50;99.90
10583;DHT22;33679;51.218;6.786;2023-05-17T05:53:03;14.50;99.90
10583;DHT22;33679;51.218;6.786;2023-05-17T05:55:39;14.60;99.90
10583;DHT22;33679;51.218;6.786;2023-05-17T05:58:12;14.90;99.90
10583;DHT22;33679;51.218;6.786;2023-05-17T06:00:45;15.50;99.90
10583;DHT22;33679;51.218;6.786;2023-05-17T06:03:17;16.30;99.90
10583;DHT22;33679;51.218;6.786;2023-05-17T06:05:57;16.70;99.90
10583;DHT22;33679;51.218;6.786;2023-05-17T06:08:29;16.80;99.90
10583;DHT22;33679;51.218;6.786;2023-05-17T06:11:06;16.70;99.90
10583;DHT22;33679;51.218;6.786;2023-05-17T06:13:39;16.70;99.90
10583;DHT22;33679;51.218;6.786;2023-05-17T06:16:12;16.70;99.90
10583;DHT22;33679;51.218;6.786;2023-05-17T06:18:47;16.60;99.90
10583;DHT22;33679;51.218;6.786;2023-05-17T06:21:29;16.60;99.90
10583;DHT22;33679;51.218;6.786;2023-05-17T06:24:10;16.60;99.90
10583;DHT22;33679;51.218;6.786;2023-05-17T06:26:48;16.60;99.90
10583;DHT22;33679;51.218;6.786;2023-05-17T06:29:22;16.40;99.90
10583;DHT22;33679;51.218;6.786;2023-05-17T06:31:58;16.30;99.90
10583;DHT22;33679;51.218;6.786;2023-05-17T06:34:33;16.20;99.90
10583;DHT22;33679;51.218;6.786;2023-05-17T06:37:08;16.20;99.90
10583;DHT22;33679;51.218;6.786;2023-05-17T06:39:42;16.20;99.90
10583;DHT22;33679;51.218;6.786;2023-05-17T06:42:16;16.10;99.90
10583;DHT22;33679;51.218;6.786;2023-05-17T06:44:48;16.10;99.90
10583;DHT22;33679;51.218;6.786;2023-05-17T06:47:21;16.00;99.90
10583;DHT22;33679;51.218;6.786;2023-05-17T06:49:56;15.90;99.90
10583;DHT22;33679;51.218;6.786;2023-05-17T06:52:34;15.80;99.90
10583;DHT22;33679;51.218;6.786;2023-05-17T06:55:07;15.80;99.90
10583;DHT22;33679;51.218;6.786;2023-05-17T06:57:43;15.80;99.90
10583;DHT22;33679;51.218;6.786;2023-05-17T07:00:17;15.80;99.90
10583;DHT22;33679;51.218;6.786;2023-05-17T07:02:51;15.90;99.90
10583;DHT22;33679;51.218;6.786;2023-05-17T07:05:27;16.00;99.90
10583;DHT22;33679;51.218;6.786;2023-05-17T07:08:02;16.00;99.90
10583;DHT22;33679;51.218;6.786;2023-05-17T07:10:35;16.10;99.90
10583;DHT22;33679;51.218;6.786;2023-05-17T07:13:10;16.00;99.90
10583;DHT22;33679;51.218;6.786;2023-05-17T07:15:44;16.00;99.90
10583;DHT22;33679;51.218;6.786;2023-05-17T07:18:19;16.00;99.90
10583;DHT22;33679;51.218;6.786;2023-05-17T07:20:52;16.10;99.90
10583;DHT22;33679;51.218;6.786;2023-05-17T07:23:27;16.20;99.90
10583;DHT22;33679;51.218;6.786;2023-05-17T07:26:00;16.10;99.90
10583;DHT22;33679;51.218;6.786;2023-05-17T07:28:38;16.10;99.90
10583;DHT22;33679;51.218;6.786;2023-05-17T07:31:12;16.10;99.90
10583;DHT22;33679;51.218;6.786;2023-05-17T07:33:48;16.00;99.90
10583;DHT22;33679;51.218;6.786;2023-05-17T07:36:23;16.00;99.90
10583;DHT22;33679;51.218;6.786;2023-05-17T07:39:01;16.00;99.90
10583;DHT22;33679;51.218;6.786;2023-05-17T07:41:36;16.00;99.90
10583;DHT22;33679;51.218;6.786;2023-05-17T07:44:11;16.00;99.90
10583;DHT22;33679;51.218;6.786;2023-05-17T07:46:46;16.00;99.90
10583;DHT22;33679;51.218;6.786;2023-05-17T07:49:19;16.00;99.90
10583;DHT22;33679;51.218;6.786;2023-05-17T07:51:53;16.00;99.90
10583;DHT22;33679;51.218;6.786;2023-05-17T07:54:27;16.00;99.90
10583;DHT22;33679;51.218;6.786;2023-05-17T07:57:03;16.00;99.90
10583;DHT22;33679;51.218;6.786;2023-05-17T07:59:37;16.10;99.90
10583;DHT22;33679;51.218;6.786;2023-05-17T08:02:09;16.10;99.90
10583;DHT22;33679;51.218;6.786;2023-05-17T08:04:42;16.10;99.90
10583;DHT22;33679;51.218;6.786;2023-05-17T08:07:15;16.10;99.90
10583;DHT22;33679;51.218;6.786;2023-05-17T08:09:50;16.10;99.90
10583;DHT22;33679;51.218;6.786;2023-05-17T08:12:24;16.10;99.90
10583;DHT22;33679;51.218;6.786;2023-05-17T08:14:57;16.10;99.90
10583;DHT22;33679;51.218;6.786;2023-05-17T08:17:33;16.10;99.90
10583;DHT22;33679;51.218;6.786;2023-05-17T08:20:08;16.10;99.90
10583;DHT22;33679;51.218;6.786;2023-05-17T08:22:42;16.20;99.90
10583;DHT22;33679;51.218;6.786;2023-05-17T08:25:19;16.30;99.90
10583;DHT22;33679;51.218;6.786;2023-05-17T08:27:52;16.40;99.90
10583;DHT22;33679;51.218;6.786;2023-05-17T08:30:25;16.40;99.90
10583;DHT22;33679;51.218;6.786;2023-05-17T08:33:01;16.50;99.90
10583;DHT22;33679;51.218;6.786;2023-05-17T08:35:36;16.50;99.90
10583;DHT22;33679;51.218;6.786;2023-05-17T08:38:09;16.50;99.90
10583;DHT22;33679;51.218;6.786;2023-05-17T08:40:51;16.50;99.90
10583;DHT22;33679;51.218;6.786;2023-05-17T08:43:25;16.50;99.90
10583;DHT22;33679;51.218;6.786;2023-05-17T08:46:06;16.50;99.90
10583;DHT22;33679;51.218;6.786;2023-05-17T08:48:41;16.60;99.90
10583;DHT22;33679;51.218;6.786;2023-05-17T08:51:16;16.60;99.90
10583;DHT22;33679;51.218;6.786;2023-05-17T08:53:54;16.60;99.90
10583;DHT22;33679;51.218;6.786;2023-05-17T08:56:28;16.50;99.90
10583;DHT22;33679;51.218;6.786;2023-05-17T08:59:04;16.50;99.90
10583;DHT22;33679;51.218;6.786;2023-05-17T09:01:38;16.50;99.90
10583;DHT22;33679;51.218;6.786;2023-05-17T09:04:18;16.50;99.90
10583;DHT22;33679;51.218;6.786;2023-05-17T09:06:54;16.50;99.90
10583;DHT22;33679;51.218;6.786;2023-05-17T09:09:26;16.50;99.90
10583;DHT22;33679;51.218;6.786;2023-05-17T09:12:00;16.50;99.90
10583;DHT22;33679;51.218;6.786;2023-05-17T09:14:37;16.60;99.90
10583;DHT22;33679;51.218;6.786;2023-05-17T09:17:13;16.70;99.90
10583;DHT22;33679;51.218;6.786;2023-05-17T09:19:50;16.70;99.90
10583;DHT22;33679;51.218;6.786;2023-05-17T09:22:23;16.80;99.90
10583;DHT22;33679;51.218;6.786;2023-05-17T09:24:57;16.90;99.90
10583;DHT22;33679;51.218;6.786;2023-05-17T09:27:34;16.80;99.90
10583;DHT22;33679;51.218;6.786;2023-05-17T09:30:09;16.80;99.90
10583;DHT22;33679;51.218;6.786;2023-05-17T09:32:43;16.90;99.90
10583;DHT22;33679;51.218;6.786;2023-05-17T09:35:16;16.80;99.90
10583;DHT22;33679;51.218;6.786;2023-05-17T09:37:49;16.80;99.90
10583;DHT22;33679;51.218;6.786;2023-05-17T09:40:22;16.80;99.90
10583;DHT22;33679;51.218;6.786;2023-05-17T09:43:01;16.80;99.90
10583;DHT22;33679;51.218;6.786;2023-05-17T09:45:34;16.80;99.90
10583;DHT22;33679;51.218;6.786;2023-05-17T09:48:12;16.90;99.90
10583;DHT22;33679;51.218;6.786;2023-05-17T09:50:49;16.90;99.90
10583;DHT22;33679;51.218;6.786;2023-05-17T09:53:25;17.00;99.90
10583;DHT22;33679;51.218;6.786;2023-05-17T09:56:00;17.10;99.90
10583;DHT22;33679;51.218;6.786;2023-05-17T09:58:37;17.10;99.90
10583;DHT22;33679;51.218;6.786;2023-05-17T10:01:13;17.10;99.90
10583;DHT22;33679;51.218;6.786;2023-05-17T10:03:46;17.20;99.90
10583;DHT22;33679;51.218;6.786;2023-05-17T10:06:23;17.30;99.90
10583;DHT22;33679;51.218;6.786;2023-05-17T10:09:22;17.30;99.90
10583;DHT22;33679;51.218;6.786;2023-05-17T10:11:56;17.40;99.90
10583;DHT22;33679;51.218;6.786;2023-05-17T10:14:31;17.40;99.90
10583;DHT22;33679;51.218;6.786;2023-05-17T10:17:06;17.50;99.90
10583;DHT22;33679;51.218;6.786;2023-05-17T10:19:40;17.50;99.90
10583;DHT22;33679;51.218;6.786;2023-05-17T10:22:12;17.30;99.90
10583;DHT22;33679;51.218;6.786;2023-05-17T10:24:48;17.30;99.90
10583;DHT22;33679;51.218;6.786;2023-05-17T10:27:22;17.30;99.90
10583;DHT22;33679;51.218;6.786;2023-05-17T10:29:58;17.20;99.90
10583;DHT22;33679;51.218;6.786;2023-05-17T10:32:31;17.20;99.90
10583;DHT22;33679;51.218;6.786;2023-05-17T10:35:07;17.30;99.90
10583;DHT22;33679;51.218;6.786;2023-05-17T10:37:40;17.30;99.90
10583;DHT22;33679;51.218;6.786;2023-05-17T10:40:13;17.20;99.90
10583;DHT22;33679;51.218;6.786;2023-05-17T10:42:52;17.20;99.90
10583;DHT22;33679;51.218;6.786;2023-05-17T10:45:27;17.20;99.90
10583;DHT22;33679;51.218;6.786;2023-05-17T10:48:05;17.20;99.90
10583;DHT22;33679;51.218;6.786;2023-05-17T10:50:38;17.10;99.90
10583;DHT22;33679;51.218;6.786;2023-05-17T10:53:12;17.10;99.90
10583;DHT22;33679;51.218;6.786;2023-05-17T10:55:44;17.20;99.90
10583;DHT22;33679;51.218;6.786;2023-05-17T10:58:19;17.20;99.90
10583;DHT22;33679;51.218;6.786;2023-05-17T11:00:55;17.20;99.90
10583;DHT22;33679;51.218;6.786;2023-05-17T11:03:32;17.20;99.90
10583;DHT22;33679;51.218;6.786;2023-05-17T11:06:17;17.10;99.90
10583;DHT22;33679;51.218;6.786;2023-05-17T11:09:07;17.20;99.90
10583;DHT22;33679;51.218;6.786;2023-05-17T11:12:07;17.30;99.90
10583;DHT22;33679;51.218;6.786;2023-05-17T11:14:47;17.40;99.90
10583;DHT22;33679;51.218;6.786;2023-05-17T11:17:24;17.40;99.90
10583;DHT22;33679;51.218;6.786;2023-05-17T11:20:07;17.30;99.90
10583;DHT22;33679;51.218;6.786;2023-05-17T11:22:55;17.40;99.90
10583;DHT22;33679;51.218;6.786;2023-05-17T11:25:30;17.50;99.90
10583;DHT22;33679;51.218;6.786;2023-05-17T11:28:07;17.60;99.90
10583;DHT22;33679;51.218;6.786;2023-05-17T11:30:41;17.60;99.90
10583;DHT22;33679;51.218;6.786;2023-05-17T11:33:36;17.50;99.90
10583;DHT22;33679;51.218;6.786;2023-05-17T11:36:18;17.50;99.90
10583;DHT22;33679;51.218;6.786;2023-05-17T11:39:09;17.50;99.90
10583;DHT22;33679;51.218;6.786;2023-05-17T11:41:48;17.40;99.90
10583;DHT22;33679;51.218;6.786;2023-05-17T11:44:27;17.40;99.90
10583;DHT22;33679;51.218;6.786;2023-05-17T11:47:02;17.40;99.90
10583;DHT22;33679;51.218;6.786;2023-05-17T11:49:40;17.40;99.90
10583;DHT22;33679;51.218;6.786;2023-05-17T11:52:16;17.40;99.90
10583;DHT22;33679;51.218;6.786;2023-05-17T11:55:39;17.30;99.90
10583;DHT22;33679;51.218;6.786;2023-05-17T11:58:09;17.30;99.70
10583;DHT22;33679;51.218;6.786;2023-05-17T12:00:43;17.40;99.20
10583;DHT22;33679;51.218;6.786;2023-05-17T12:03:20;17.40;98.50
10583;DHT22;33679;51.218;6.786;2023-05-17T12:06:03;17.40;99.50
10583;DHT22;33679;51.218;6.786;2023-05-17T12:08:43;17.50;99.90
10583;DHT22;33679;51.218;6.786;2023-05-17T12:11:18;17.40;99.80
10583;DHT22;33679;51.218;6.786;2023-05-17T12:13:52;17.50;99.90
10583;DHT22;33679;51.218;6.786;2023-05-17T12:16:25;17.50;99.90
10583;DHT22;33679;51.218;6.786;2023-05-17T12:19:01;17.70;99.90
10583;DHT22;33679;51.218;6.786;2023-05-17T12:21:38;17.90;99.90
10583;DHT22;33679;51.218;6.786;2023-05-17T12:24:13;17.80;99.90
10583;DHT22;33679;51.218;6.786;2023-05-17T12:26:49;17.80;99.90
10583;DHT22;33679;51.218;6.786;2023-05-17T12:29:28;17.80;99.90
10583;DHT22;33679;51.218;6.786;2023-05-17T12:32:05;17.90;99.90
10583;DHT22;33679;51.218;6.786;2023-05-17T12:34:40;17.90;99.90
10583;DHT22;33679;51.218;6.786;2023-05-17T12:37:15;17.90;99.90
10583;DHT22;33679;51.218;6.786;2023-05-17T12:39:47;17.80;99.90
10583;DHT22;33679;51.218;6.786;2023-05-17T12:42:21;17.90;99.90
10583;DHT22;33679;51.218;6.786;2023-05-17T12:44:54;18.00;99.70
10583;DHT22;33679;51.218;6.786;2023-05-17T12:47:30;18.00;99.50
10583;DHT22;33679;51.218;6.786;2023-05-17T12:50:03;18.00;99.50
10583;DHT22;33679;51.218;6.786;2023-05-17T12:52:39;18.00;99.80
10583;DHT22;33679;51.218;6.786;2023-05-17T12:55:13;18.10;99.40
10583;DHT22;33679;51.218;6.786;2023-05-17T12:57:51;18.10;99.30
10583;DHT22;33679;51.218;6.786;2023-05-17T13:00:24;18.10;99.40
10583;DHT22;33679;51.218;6.786;2023-05-17T13:02:56;18.00;99.10
10583;DHT22;33679;51.218;6.786;2023-05-17T13:05:29;18.00;99.10
10583;DHT22;33679;51.218;6.786;2023-05-17T13:08:21;18.10;99.40
10583;DHT22;33679;51.218;6.786;2023-05-17T13:11:08;18.20;98.90
10583;DHT22;33679;51.218;6.786;2023-05-17T13:13:41;18.10;99.10
10583;DHT22;33679;51.218;6.786;2023-05-17T13:16:13;18.20;99.30
10583;DHT22;33679;51.218;6.786;2023-05-17T13:18:47;18.20;99.20
10583;DHT22;33679;51.218;6.786;2023-05-17T13:21:20;18.30;99.00
10583;DHT22;33679;51.218;6.786;2023-05-17T13:23:54;18.30;98.90
10583;DHT22;33679;51.218;6.786;2023-05-17T13:26:27;18.30;99.00
10583;DHT22;33679;51.218;6.786;2023-05-17T13:28:59;18.30;99.10
10583;DHT22;33679;51.218;6.786;2023-05-17T13:31:32;18.40;98.50
10583;DHT22;33679;51.218;6.786;2023-05-17T13:34:04;18.30;98.40
10583;DHT22;33679;51.218;6.786;2023-05-17T13:36:38;18.30;98.60
10583;DHT22;33679;51.218;6.786;2023-05-17T13:39:12;18.30;98.50
10583;DHT22;33679;51.218;6.786;2023-05-17T13:41:46;18.30;98.60
10583;DHT22;33679;51.218;6.786;2023-05-17T13:44:18;18.30;98.60
10583;DHT22;33679;51.218;6.786;2023-05-17T13:46:54;18.30;98.80
10583;DHT22;33679;51.218;6.786;2023-05-17T13:49:26;18.30;98.90
10583;DHT22;33679;51.218;6.786;2023-05-17T13:51:59;18.40;98.70
10583;DHT22;33679;51.218;6.786;2023-05-17T13:54:33;18.40;98.80
10583;DHT22;33679;51.218;6.786;2023-05-17T13:57:09;18.40;98.20
10583;DHT22;33679;51.218;6.786;2023-05-17T13:59:41;18.40;98.40
10583;DHT22;33679;51.218;6.786;2023-05-17T14:02:15;18.50;98.20
10583;DHT22;33679;51.218;6.786;2023-05-17T14:04:50;18.50;98.40
10583;DHT22;33679;51.218;6.786;2023-05-17T14:07:22;18.50;98.60
10583;DHT22;33679;51.218;6.786;2023-05-17T14:09:56;18.60;98.70
10583;DHT22;33679;51.218;6.786;2023-05-17T14:12:28;18.60;98.40
10583;DHT22;33679;51.218;6.786;2023-05-17T14:15:03;18.70;97.00
10583;DHT22;33679;51.218;6.786;2023-05-17T14:17:36;18.70;96.80
10583;DHT22;33679;51.218;6.786;2023-05-17T14:20:09;18.60;97.10
10583;DHT22;33679;51.218;6.786;2023-05-17T14:22:45;18.60;97.10
10583;DHT22;33679;51.218;6.786;2023-05-17T14:25:19;18.50;96.90
10583;DHT22;33679;51.218;6.786;2023-05-17T14:27:51;18.50;97.00
10583;DHT22;33679;51.218;6.786;2023-05-17T14:30:24;18.50;97.10
10583;DHT22;33679;51.218;6.786;2023-05-17T14:32:56;18.50;97.50
10583;DHT22;33679;51.218;6.786;2023-05-17T14:35:30;18.50;97.70
10583;DHT22;33679;51.218;6.786;2023-05-17T14:38:03;18.60;97.70
10583;DHT22;33679;51.218;6.786;2023-05-17T14:40:40;18.60;97.30
10583;DHT22;33679;51.218;6.786;2023-05-17T14:43:13;18.70;97.30
10583;DHT22;33679;51.218;6.786;2023-05-17T14:45:46;18.70;97.50
10583;DHT22;33679;51.218;6.786;2023-05-17T14:48:18;18.80;97.30
10583;DHT22;33679;51.218;6.786;2023-05-17T14:50:51;18.90;96.70
10583;DHT22;33679;51.218;6.786;2023-05-17T14:53:23;18.90;96.50
10583;DHT22;33679;51.218;6.786;2023-05-17T14:56:00;18.90;96.50
10583;DHT22;33679;51.218;6.786;2023-05-17T14:58:32;18.90;96.90
10583;DHT22;33679;51.218;6.786;2023-05-17T15:01:05;19.00;96.70
10583;DHT22;33679;51.218;6.786;2023-05-17T15:03:39;18.90;96.70
10583;DHT22;33679;51.218;6.786;2023-05-17T15:06:12;18.80;96.90
10583;DHT22;33679;51.218;6.786;2023-05-17T15:08:47;18.80;96.90
10583;DHT22;33679;51.218;6.786;2023-05-17T15:11:23;18.90;97.10
10583;DHT22;33679;51.218;6.786;2023-05-17T15:13:56;19.00;97.00
10583;DHT22;33679;51.218;6.786;2023-05-17T15:16:31;19.00;96.40
10583;DHT22;33679;51.218;6.786;2023-05-17T15:19:04;19.00;95.80
10583;DHT22;33679;51.218;6.786;2023-05-17T15:21:37;19.00;95.90
10583;DHT22;33679;51.218;6.786;2023-05-17T15:24:12;19.00;95.90
10583;DHT22;33679;51.218;6.786;2023-05-17T15:26:46;19.10;95.30
10583;DHT22;33679;51.218;6.786;2023-05-17T15:29:19;19.10;95.30
10583;DHT22;33679;51.218;6.786;2023-05-17T15:31:51;19.10;95.30
10583;DHT22;33679;51.218;6.786;2023-05-17T15:34:23;19.10;95.50
10583;DHT22;33679;51.218;6.786;2023-05-17T15:36:56;19.00;95.50
10583;DHT22;33679;51.218;6.786;2023-05-17T15:39:29;19.00;95.20
10583;DHT22;33679;51.218;6.786;2023-05-17T15:42:04;19.00;95.40
10583;DHT22;33679;51.218;6.786;2023-05-17T15:44:38;19.00;95.40
10583;DHT22;33679;51.218;6.786;2023-05-17T15:47:11;19.00;95.30
10583;DHT22;33679;51.218;6.786;2023-05-17T15:49:43;19.00;95.40
10583;DHT22;33679;51.218;6.786;2023-05-17T15:52:15;18.90;95.50
10583;DHT22;33679;51.218;6.786;2023-05-17T15:54:48;18.90;95.50
10583;DHT22;33679;51.218;6.786;2023-05-17T15:57:22;19.00;95.40
10583;DHT22;33679;51.218;6.786;2023-05-17T15:59:55;18.90;95.10
10583;DHT22;33679;51.218;6.786;2023-05-17T16:02:28;18.90;95.30
10583;DHT22;33679;51.218;6.786;2023-05-17T16:05:04;18.90;95.30
10583;DHT22;33679;51.218;6.786;2023-05-17T16:07:36;18.90;94.80
10583;DHT22;33679;51.218;6.786;2023-05-17T16:10:10;18.80;95.00
10583;DHT22;33679;51.218;6.786;2023-05-17T16:12:44;18.80;95.50
10583;DHT22;33679;51.218;6.786;2023-05-17T16:15:17;18.90;95.70
10583;DHT22;33679;51.218;6.786;2023-05-17T16:17:50;18.80;95.80